sensor_id;sensor_type;location;lat;lon;timestamp;P1;durP1;ratioP1;P2;durP2;ratioP2
11127;SDS011;5618;51.028;5.234;2022-07-05T00:00:56;2.03;;;1.45;;
11127;SDS011;5618;51.028;5.234;2022-07-05T00:03:22;1.30;;;1.20;;
11127;SDS011;5618;51.028;5.234;2022-07-05T00:05:48;1.13;;;1.02;;
11127;SDS011;5618;51.028;5.234;2022-07-05T00:08:13;1.67;;;1.20;;
11127;SDS011;5618;51.028;5.234;2022-07-05T00:10:39;1.65;;;1.33;;
11127;SDS011;5618;51.028;5.234;2022-07-05T00:13:05;1.00;;;1.00;;
11127;SDS011;5618;51.028;5.234;2022-07-05T00:15:31;1.33;;;1.17;;
11127;SDS011;5618;51.028;5.234;2022-07-05T00:17:57;1.38;;;1.27;;
11127;SDS011;5618;51.028;5.234;2022-07-05T00:20:23;1.00;;;1.00;;
11127;SDS011;5618;51.028;5.234;2022-07-05T00:22:49;0.90;;;0.90;;
11127;SDS011;5618;51.028;5.234;2022-07-05T00:25:15;1.42;;;1.02;;
11127;SDS011;5618;51.028;5.234;2022-07-05T00:27:41;2.00;;;1.38;;
11127;SDS011;5618;51.028;5.234;2022-07-05T00:30:07;1.20;;;1.20;;
11127;SDS011;5618;51.028;5.234;2022-07-05T00:32:33;1.40;;;1.30;;
11127;SDS011;5618;51.028;5.234;2022-07-05T00:35:00;2.05;;;1.83;;
11127;SDS011;5618;51.028;5.234;2022-07-05T00:37:26;2.08;;;1.55;;
11127;SDS011;5618;51.028;5.234;2022-07-05T00:39:51;3.35;;;1.52;;
11127;SDS011;5618;51.028;5.234;2022-07-05T00:42:17;1.15;;;1.05;;
11127;SDS011;5618;51.028;5.234;2022-07-05T00:44:43;2.47;;;1.50;;
11127;SDS011;5618;51.028;5.234;2022-07-05T00:47:09;1.25;;;1.15;;
11127;SDS011;5618;51.028;5.234;2022-07-05T00:49:36;1.77;;;1.13;;
11127;SDS011;5618;51.028;5.234;2022-07-05T00:52:03;1.98;;;1.40;;
11127;SDS011;5618;51.028;5.234;2022-07-05T00:54:32;1.77;;;1.55;;
11127;SDS011;5618;51.028;5.234;2022-07-05T00:57:00;2.45;;;1.55;;
11127;SDS011;5618;51.028;5.234;2022-07-05T00:59:26;2.17;;;1.40;;
11127;SDS011;5618;51.028;5.234;2022-07-05T01:01:53;3.25;;;1.88;;
11127;SDS011;5618;51.028;5.234;2022-07-05T01:04:19;1.13;;;1.13;;
11127;SDS011;5618;51.028;5.234;2022-07-05T01:06:46;1.85;;;1.05;;
11127;SDS011;5618;51.028;5.234;2022-07-05T01:09:13;1.35;;;1.17;;
11127;SDS011;5618;51.028;5.234;2022-07-05T01:11:44;1.95;;;1.25;;
11127;SDS011;5618;51.028;5.234;2022-07-05T01:14:11;1.90;;;1.42;;
11127;SDS011;5618;51.028;5.234;2022-07-05T01:16:40;1.90;;;1.00;;
11127;SDS011;5618;51.028;5.234;2022-07-05T01:19:06;1.77;;;1.25;;
11127;SDS011;5618;51.028;5.234;2022-07-05T01:21:39;3.50;;;1.23;;
11127;SDS011;5618;51.028;5.234;2022-07-05T01:24:07;1.23;;;1.13;;
11127;SDS011;5618;51.028;5.234;2022-07-05T01:26:34;1.58;;;1.40;;
11127;SDS011;5618;51.028;5.234;2022-07-05T01:29:01;1.40;;;1.30;;
11127;SDS011;5618;51.028;5.234;2022-07-05T01:31:26;1.50;;;1.40;;
11127;SDS011;5618;51.028;5.234;2022-07-05T01:33:52;1.55;;;1.45;;
11127;SDS011;5618;51.028;5.234;2022-07-05T01:36:18;1.00;;;0.90;;
11127;SDS011;5618;51.028;5.234;2022-07-05T01:38:44;2.10;;;1.13;;
11127;SDS011;5618;51.028;5.234;2022-07-05T01:41:11;1.45;;;1.35;;
11127;SDS011;5618;51.028;5.234;2022-07-05T01:43:36;1.20;;;1.10;;
11127;SDS011;5618;51.028;5.234;2022-07-05T01:46:04;1.77;;;1.63;;
11127;SDS011;5618;51.028;5.234;2022-07-05T01:48:32;1.60;;;1.50;;
11127;SDS011;5618;51.028;5.234;2022-07-05T01:51:03;2.58;;;1.00;;
11127;SDS011;5618;51.028;5.234;2022-07-05T01:53:31;1.52;;;1.25;;
11127;SDS011;5618;51.028;5.234;2022-07-05T01:55:58;1.25;;;1.25;;
11127;SDS011;5618;51.028;5.234;2022-07-05T01:58:25;1.38;;;1.27;;
11127;SDS011;5618;51.028;5.234;2022-07-05T02:00:52;1.25;;;1.23;;
11127;SDS011;5618;51.028;5.234;2022-07-05T02:03:18;2.80;;;1.30;;
11127;SDS011;5618;51.028;5.234;2022-07-05T02:05:45;1.20;;;1.10;;
11127;SDS011;5618;51.028;5.234;2022-07-05T02:08:12;1.27;;;1.17;;
11127;SDS011;5618;51.028;5.234;2022-07-05T02:10:38;1.05;;;1.05;;
11127;SDS011;5618;51.028;5.234;2022-07-05T02:13:05;3.95;;;1.45;;
11127;SDS011;5618;51.028;5.234;2022-07-05T02:15:31;3.42;;;1.30;;
11127;SDS011;5618;51.028;5.234;2022-07-05T02:17:58;1.88;;;1.38;;
11127;SDS011;5618;51.028;5.234;2022-07-05T02:20:25;1.48;;;1.38;;
11127;SDS011;5618;51.028;5.234;2022-07-05T02:22:51;2.08;;;1.58;;
11127;SDS011;5618;51.028;5.234;2022-07-05T02:25:16;1.55;;;1.40;;
11127;SDS011;5618;51.028;5.234;2022-07-05T02:27:42;1.48;;;1.38;;
11127;SDS011;5618;51.028;5.234;2022-07-05T02:30:08;1.50;;;1.40;;
11127;SDS011;5618;51.028;5.234;2022-07-05T02:32:34;3.28;;;1.48;;
11127;SDS011;5618;51.028;5.234;2022-07-05T02:34:59;1.73;;;1.63;;
11127;SDS011;5618;51.028;5.234;2022-07-05T02:37:26;2.78;;;1.67;;
11127;SDS011;5618;51.028;5.234;2022-07-05T02:39:52;1.70;;;1.35;;
11127;SDS011;5618;51.028;5.234;2022-07-05T02:42:19;1.65;;;1.55;;
11127;SDS011;5618;51.028;5.234;2022-07-05T02:44:44;1.83;;;1.55;;
11127;SDS011;5618;51.028;5.234;2022-07-05T02:47:10;1.85;;;1.48;;
11127;SDS011;5618;51.028;5.234;2022-07-05T02:49:36;1.70;;;1.60;;
11127;SDS011;5618;51.028;5.234;2022-07-05T02:52:02;1.60;;;1.40;;
11127;SDS011;5618;51.028;5.234;2022-07-05T02:54:27;2.13;;;1.90;;
11127;SDS011;5618;51.028;5.234;2022-07-05T02:56:53;1.80;;;1.70;;
11127;SDS011;5618;51.028;5.234;2022-07-05T02:59:19;1.58;;;1.48;;
11127;SDS011;5618;51.028;5.234;2022-07-05T03:01:44;1.80;;;1.70;;
11127;SDS011;5618;51.028;5.234;2022-07-05T03:04:10;2.33;;;1.60;;
11127;SDS011;5618;51.028;5.234;2022-07-05T03:06:36;2.22;;;1.63;;
11127;SDS011;5618;51.028;5.234;2022-07-05T03:09:02;1.45;;;1.35;;
11127;SDS011;5618;51.028;5.234;2022-07-05T03:11:28;1.50;;;1.30;;
11127;SDS011;5618;51.028;5.234;2022-07-05T03:13:53;2.13;;;1.30;;
11127;SDS011;5618;51.028;5.234;2022-07-05T03:16:19;2.58;;;1.60;;
11127;SDS011;5618;51.028;5.234;2022-07-05T03:18:46;1.40;;;1.30;;
11127;SDS011;5618;51.028;5.234;2022-07-05T03:21:12;1.45;;;1.20;;
11127;SDS011;5618;51.028;5.234;2022-07-05T03:23:38;2.25;;;1.73;;
11127;SDS011;5618;51.028;5.234;2022-07-05T03:26:03;1.42;;;1.33;;
11127;SDS011;5618;51.028;5.234;2022-07-05T03:28:29;1.30;;;1.20;;
11127;SDS011;5618;51.028;5.234;2022-07-05T03:30:55;1.92;;;1.60;;
11127;SDS011;5618;51.028;5.234;2022-07-05T03:33:20;1.90;;;1.65;;
11127;SDS011;5618;51.028;5.234;2022-07-05T03:35:46;2.10;;;1.92;;
11127;SDS011;5618;51.028;5.234;2022-07-05T03:38:12;2.05;;;1.70;;
11127;SDS011;5618;51.028;5.234;2022-07-05T03:40:37;1.65;;;1.55;;
11127;SDS011;5618;51.028;5.234;2022-07-05T03:43:03;2.40;;;1.52;;
11127;SDS011;5618;51.028;5.234;2022-07-05T03:45:29;1.80;;;1.70;;
11127;SDS011;5618;51.028;5.234;2022-07-05T03:47:58;2.65;;;1.60;;
11127;SDS011;5618;51.028;5.234;2022-07-05T03:50:24;1.52;;;1.33;;
11127;SDS011;5618;51.028;5.234;2022-07-05T03:52:50;2.05;;;1.85;;
11127;SDS011;5618;51.028;5.234;2022-07-05T03:55:16;2.85;;;2.08;;
11127;SDS011;5618;51.028;5.234;2022-07-05T03:57:42;1.63;;;1.50;;
11127;SDS011;5618;51.028;5.234;2022-07-05T04:00:08;1.58;;;1.48;;
11127;SDS011;5618;51.028;5.234;2022-07-05T04:02:34;3.17;;;1.55;;
11127;SDS011;5618;51.028;5.234;2022-07-05T04:05:00;1.75;;;1.60;;
11127;SDS011;5618;51.028;5.234;2022-07-05T04:07:25;2.70;;;2.20;;
11127;SDS011;5618;51.028;5.234;2022-07-05T04:09:51;1.90;;;1.70;;
11127;SDS011;5618;51.028;5.234;2022-07-05T04:12:17;1.83;;;1.67;;
11127;SDS011;5618;51.028;5.234;2022-07-05T04:14:43;3.42;;;1.60;;
11127;SDS011;5618;51.028;5.234;2022-07-05T04:17:09;2.10;;;1.90;;
11127;SDS011;5618;51.028;5.234;2022-07-05T04:19:34;1.83;;;1.63;;
11127;SDS011;5618;51.028;5.234;2022-07-05T04:22:00;1.83;;;1.73;;
11127;SDS011;5618;51.028;5.234;2022-07-05T04:24:26;2.10;;;1.90;;
11127;SDS011;5618;51.028;5.234;2022-07-05T04:26:51;2.13;;;1.92;;
11127;SDS011;5618;51.028;5.234;2022-07-05T04:29:17;2.00;;;1.80;;
11127;SDS011;5618;51.028;5.234;2022-07-05T04:31:43;2.90;;;2.28;;
11127;SDS011;5618;51.028;5.234;2022-07-05T04:34:08;2.10;;;1.80;;
11127;SDS011;5618;51.028;5.234;2022-07-05T04:36:34;2.17;;;2.00;;
11127;SDS011;5618;51.028;5.234;2022-07-05T04:39:02;7.13;;;2.60;;
11127;SDS011;5618;51.028;5.234;2022-07-05T04:41:29;2.33;;;2.13;;
11127;SDS011;5618;51.028;5.234;2022-07-05T04:43:54;3.97;;;1.92;;
11127;SDS011;5618;51.028;5.234;2022-07-05T04:46:20;2.20;;;2.00;;
11127;SDS011;5618;51.028;5.234;2022-07-05T04:48:46;3.05;;;2.20;;
11127;SDS011;5618;51.028;5.234;2022-07-05T04:51:11;3.72;;;2.25;;
11127;SDS011;5618;51.028;5.234;2022-07-05T04:53:37;3.22;;;2.40;;
11127;SDS011;5618;51.028;5.234;2022-07-05T04:56:03;2.40;;;2.13;;
11127;SDS011;5618;51.028;5.234;2022-07-05T04:58:30;4.07;;;2.47;;
11127;SDS011;5618;51.028;5.234;2022-07-05T05:00:56;3.50;;;2.92;;
11127;SDS011;5618;51.028;5.234;2022-07-05T05:03:21;2.60;;;2.40;;
11127;SDS011;5618;51.028;5.234;2022-07-05T05:05:47;2.70;;;2.50;;
11127;SDS011;5618;51.028;5.234;2022-07-05T05:08:13;2.78;;;2.53;;
11127;SDS011;5618;51.028;5.234;2022-07-05T05:10:38;2.97;;;2.70;;
11127;SDS011;5618;51.028;5.234;2022-07-05T05:13:04;3.63;;;2.90;;
11127;SDS011;5618;51.028;5.234;2022-07-05T05:15:30;4.07;;;2.53;;
11127;SDS011;5618;51.028;5.234;2022-07-05T05:17:55;5.55;;;3.30;;
11127;SDS011;5618;51.028;5.234;2022-07-05T05:20:21;3.92;;;3.05;;
11127;SDS011;5618;51.028;5.234;2022-07-05T05:22:48;3.88;;;3.05;;
11127;SDS011;5618;51.028;5.234;2022-07-05T05:25:14;5.47;;;3.17;;
11127;SDS011;5618;51.028;5.234;2022-07-05T05:27:46;5.00;;;3.20;;
11127;SDS011;5618;51.028;5.234;2022-07-05T05:30:14;4.05;;;2.90;;
11127;SDS011;5618;51.028;5.234;2022-07-05T05:32:41;3.65;;;3.35;;
11127;SDS011;5618;51.028;5.234;2022-07-05T05:35:07;4.13;;;3.35;;
11127;SDS011;5618;51.028;5.234;2022-07-05T05:37:49;5.30;;;3.40;;
11127;SDS011;5618;51.028;5.234;2022-07-05T05:40:19;3.03;;;2.70;;
11127;SDS011;5618;51.028;5.234;2022-07-05T05:42:46;4.63;;;3.63;;
11127;SDS011;5618;51.028;5.234;2022-07-05T05:45:12;4.60;;;3.17;;
11127;SDS011;5618;51.028;5.234;2022-07-05T05:50:21;5.18;;;3.40;;
11127;SDS011;5618;51.028;5.234;2022-07-05T05:52:51;5.03;;;3.10;;
11127;SDS011;5618;51.028;5.234;2022-07-05T05:55:18;6.47;;;3.00;;
11127;SDS011;5618;51.028;5.234;2022-07-05T05:57:44;3.75;;;3.40;;
11127;SDS011;5618;51.028;5.234;2022-07-05T06:00:11;3.72;;;3.38;;
11127;SDS011;5618;51.028;5.234;2022-07-05T06:02:37;6.60;;;3.00;;
11127;SDS011;5618;51.028;5.234;2022-07-05T06:05:04;5.90;;;3.33;;
11127;SDS011;5618;51.028;5.234;2022-07-05T06:07:30;3.95;;;2.75;;
11127;SDS011;5618;51.028;5.234;2022-07-05T06:09:56;3.72;;;3.13;;
11127;SDS011;5618;51.028;5.234;2022-07-05T06:12:22;7.90;;;3.28;;
11127;SDS011;5618;51.028;5.234;2022-07-05T06:14:47;6.22;;;3.08;;
11127;SDS011;5618;51.028;5.234;2022-07-05T06:17:13;3.08;;;2.65;;
11127;SDS011;5618;51.028;5.234;2022-07-05T06:19:39;4.18;;;2.92;;
11127;SDS011;5618;51.028;5.234;2022-07-05T06:22:05;4.80;;;2.67;;
11127;SDS011;5618;51.028;5.234;2022-07-05T06:24:30;3.22;;;2.75;;
11127;SDS011;5618;51.028;5.234;2022-07-05T06:26:56;3.53;;;2.67;;
11127;SDS011;5618;51.028;5.234;2022-07-05T06:29:22;3.75;;;2.58;;
11127;SDS011;5618;51.028;5.234;2022-07-05T06:31:47;4.78;;;2.78;;
11127;SDS011;5618;51.028;5.234;2022-07-05T06:34:13;3.88;;;2.63;;
11127;SDS011;5618;51.028;5.234;2022-07-05T06:36:38;5.78;;;2.92;;
11127;SDS011;5618;51.028;5.234;2022-07-05T06:39:04;3.55;;;2.40;;
11127;SDS011;5618;51.028;5.234;2022-07-05T06:41:30;6.40;;;2.97;;
11127;SDS011;5618;51.028;5.234;2022-07-05T06:43:55;5.88;;;2.70;;
11127;SDS011;5618;51.028;5.234;2022-07-05T06:46:22;3.65;;;2.60;;
11127;SDS011;5618;51.028;5.234;2022-07-05T06:48:48;4.30;;;3.08;;
11127;SDS011;5618;51.028;5.234;2022-07-05T06:51:13;10.50;;;3.25;;
11127;SDS011;5618;51.028;5.234;2022-07-05T06:53:39;4.90;;;2.85;;
11127;SDS011;5618;51.028;5.234;2022-07-05T06:56:05;4.28;;;2.80;;
11127;SDS011;5618;51.028;5.234;2022-07-05T06:58:30;3.40;;;2.45;;
11127;SDS011;5618;51.028;5.234;2022-07-05T07:00:56;2.55;;;1.75;;
11127;SDS011;5618;51.028;5.234;2022-07-05T07:03:22;2.80;;;1.88;;
11127;SDS011;5618;51.028;5.234;2022-07-05T07:05:47;4.30;;;2.05;;
11127;SDS011;5618;51.028;5.234;2022-07-05T07:08:13;4.00;;;2.33;;
11127;SDS011;5618;51.028;5.234;2022-07-05T07:10:58;2.95;;;2.67;;
11127;SDS011;5618;51.028;5.234;2022-07-05T07:13:24;2.42;;;2.20;;
11127;SDS011;5618;51.028;5.234;2022-07-05T07:15:50;2.50;;;2.30;;
11127;SDS011;5618;51.028;5.234;2022-07-05T07:18:15;3.83;;;2.20;;
11127;SDS011;5618;51.028;5.234;2022-07-05T07:20:41;6.78;;;3.17;;
11127;SDS011;5618;51.028;5.234;2022-07-05T07:23:07;2.35;;;1.90;;
11127;SDS011;5618;51.028;5.234;2022-07-05T07:25:32;4.10;;;2.00;;
11127;SDS011;5618;51.028;5.234;2022-07-05T07:27:59;5.25;;;2.33;;
11127;SDS011;5618;51.028;5.234;2022-07-05T07:30:26;3.35;;;1.77;;
11127;SDS011;5618;51.028;5.234;2022-07-05T07:32:52;6.78;;;2.25;;
11127;SDS011;5618;51.028;5.234;2022-07-05T07:35:19;6.10;;;2.40;;
11127;SDS011;5618;51.028;5.234;2022-07-05T07:37:45;3.25;;;2.22;;
11127;SDS011;5618;51.028;5.234;2022-07-05T07:40:11;4.30;;;2.03;;
11127;SDS011;5618;51.028;5.234;2022-07-05T07:42:37;3.50;;;2.45;;
11127;SDS011;5618;51.028;5.234;2022-07-05T07:45:03;2.92;;;2.42;;
11127;SDS011;5618;51.028;5.234;2022-07-05T07:47:33;4.55;;;2.17;;
11127;SDS011;5618;51.028;5.234;2022-07-05T07:50:00;6.00;;;2.65;;
11127;SDS011;5618;51.028;5.234;2022-07-05T07:52:27;2.83;;;2.33;;
11127;SDS011;5618;51.028;5.234;2022-07-05T07:54:55;3.72;;;2.60;;
11127;SDS011;5618;51.028;5.234;2022-07-05T07:57:22;3.55;;;2.50;;
11127;SDS011;5618;51.028;5.234;2022-07-05T07:59:47;2.15;;;1.95;;
11127;SDS011;5618;51.028;5.234;2022-07-05T08:02:13;2.85;;;1.77;;
11127;SDS011;5618;51.028;5.234;2022-07-05T08:04:39;2.05;;;1.90;;
11127;SDS011;5618;51.028;5.234;2022-07-05T08:07:04;2.78;;;2.13;;
11127;SDS011;5618;51.028;5.234;2022-07-05T08:09:30;6.25;;;2.25;;
11127;SDS011;5618;51.028;5.234;2022-07-05T08:11:56;4.55;;;2.20;;
11127;SDS011;5618;51.028;5.234;2022-07-05T08:14:22;1.85;;;1.65;;
11127;SDS011;5618;51.028;5.234;2022-07-05T08:16:48;2.97;;;1.90;;
11127;SDS011;5618;51.028;5.234;2022-07-05T08:19:14;2.85;;;1.70;;
11127;SDS011;5618;51.028;5.234;2022-07-05T08:21:59;3.28;;;1.67;;
11127;SDS011;5618;51.028;5.234;2022-07-05T08:24:26;2.15;;;1.52;;
11127;SDS011;5618;51.028;5.234;2022-07-05T08:26:52;2.60;;;1.77;;
11127;SDS011;5618;51.028;5.234;2022-07-05T08:29:18;1.67;;;1.30;;
11127;SDS011;5618;51.028;5.234;2022-07-05T08:31:48;1.80;;;1.50;;
11127;SDS011;5618;51.028;5.234;2022-07-05T08:34:15;1.17;;;1.00;;
11127;SDS011;5618;51.028;5.234;2022-07-05T08:36:45;6.32;;;2.10;;
11127;SDS011;5618;51.028;5.234;2022-07-05T08:39:11;1.85;;;1.58;;
11127;SDS011;5618;51.028;5.234;2022-07-05T08:41:39;2.42;;;1.67;;
11127;SDS011;5618;51.028;5.234;2022-07-05T08:44:07;4.07;;;1.15;;
11127;SDS011;5618;51.028;5.234;2022-07-05T08:46:36;5.45;;;1.73;;
11127;SDS011;5618;51.028;5.234;2022-07-05T08:49:05;4.90;;;1.65;;
11127;SDS011;5618;51.028;5.234;2022-07-05T08:51:32;1.67;;;1.42;;
11127;SDS011;5618;51.028;5.234;2022-07-05T08:54:01;2.42;;;1.17;;
11127;SDS011;5618;51.028;5.234;2022-07-05T08:56:28;2.35;;;1.67;;
11127;SDS011;5618;51.028;5.234;2022-07-05T08:58:55;3.58;;;1.50;;
11127;SDS011;5618;51.028;5.234;2022-07-05T09:01:20;2.30;;;1.40;;
11127;SDS011;5618;51.028;5.234;2022-07-05T09:03:48;2.20;;;1.35;;
11127;SDS011;5618;51.028;5.234;2022-07-05T09:06:19;3.90;;;1.48;;
11127;SDS011;5618;51.028;5.234;2022-07-05T09:08:50;1.73;;;1.30;;
11127;SDS011;5618;51.028;5.234;2022-07-05T09:11:19;1.45;;;1.25;;
11127;SDS011;5618;51.028;5.234;2022-07-05T09:13:55;2.83;;;1.17;;
11127;SDS011;5618;51.028;5.234;2022-07-05T09:16:21;1.50;;;1.40;;
11127;SDS011;5618;51.028;5.234;2022-07-05T09:18:49;1.92;;;1.17;;
11127;SDS011;5618;51.028;5.234;2022-07-05T09:21:17;2.17;;;1.15;;
11127;SDS011;5618;51.028;5.234;2022-07-05T09:23:44;3.33;;;1.08;;
11127;SDS011;5618;51.028;5.234;2022-07-05T09:26:18;1.38;;;1.27;;
11127;SDS011;5618;51.028;5.234;2022-07-05T09:28:54;2.95;;;1.30;;
11127;SDS011;5618;51.028;5.234;2022-07-05T09:31:31;2.80;;;1.10;;
11127;SDS011;5618;51.028;5.234;2022-07-05T09:34:04;2.60;;;1.35;;
11127;SDS011;5618;51.028;5.234;2022-07-05T09:36:55;1.20;;;1.17;;
11127;SDS011;5618;51.028;5.234;2022-07-05T09:44:53;3.17;;;1.25;;
11127;SDS011;5618;51.028;5.234;2022-07-05T09:47:20;0.60;;;0.60;;
11127;SDS011;5618;51.028;5.234;2022-07-05T09:49:49;0.90;;;0.88;;
11127;SDS011;5618;51.028;5.234;2022-07-05T09:52:25;3.05;;;0.98;;
11127;SDS011;5618;51.028;5.234;2022-07-05T09:55:02;1.17;;;0.82;;
11127;SDS011;5618;51.028;5.234;2022-07-05T09:57:28;1.25;;;0.95;;
11127;SDS011;5618;51.028;5.234;2022-07-05T10:00:00;1.75;;;0.90;;
11127;SDS011;5618;51.028;5.234;2022-07-05T10:02:40;3.22;;;1.23;;
11127;SDS011;5618;51.028;5.234;2022-07-05T10:05:10;1.75;;;1.27;;
11127;SDS011;5618;51.028;5.234;2022-07-05T10:07:38;1.67;;;1.00;;
11127;SDS011;5618;51.028;5.234;2022-07-05T10:10:13;1.67;;;1.08;;
11127;SDS011;5618;51.028;5.234;2022-07-05T10:12:50;2.38;;;0.82;;
11127;SDS011;5618;51.028;5.234;2022-07-05T10:15:32;2.15;;;1.00;;
11127;SDS011;5618;51.028;5.234;2022-07-05T10:23:12;2.10;;;1.15;;
11127;SDS011;5618;51.028;5.234;2022-07-05T10:25:45;1.55;;;1.25;;
11127;SDS011;5618;51.028;5.234;2022-07-05T10:28:17;2.25;;;1.33;;
11127;SDS011;5618;51.028;5.234;2022-07-05T10:30:44;2.05;;;1.25;;
11127;SDS011;5618;51.028;5.234;2022-07-05T10:33:11;1.30;;;0.95;;
11127;SDS011;5618;51.028;5.234;2022-07-05T10:35:44;2.33;;;1.33;;
11127;SDS011;5618;51.028;5.234;2022-07-05T10:38:10;2.38;;;1.23;;
11127;SDS011;5618;51.028;5.234;2022-07-05T10:40:38;2.80;;;1.08;;
11127;SDS011;5618;51.028;5.234;2022-07-05T10:43:05;3.22;;;1.05;;
11127;SDS011;5618;51.028;5.234;2022-07-05T10:45:37;2.38;;;1.33;;
11127;SDS011;5618;51.028;5.234;2022-07-05T10:48:14;3.83;;;1.30;;
11127;SDS011;5618;51.028;5.234;2022-07-05T10:53:22;1.30;;;1.20;;
11127;SDS011;5618;51.028;5.234;2022-07-05T10:58:36;3.50;;;1.20;;
11127;SDS011;5618;51.028;5.234;2022-07-05T11:03:44;1.88;;;1.23;;
11127;SDS011;5618;51.028;5.234;2022-07-05T11:06:25;3.70;;;1.67;;
11127;SDS011;5618;51.028;5.234;2022-07-05T11:11:34;1.02;;;0.98;;
11127;SDS011;5618;51.028;5.234;2022-07-05T11:14:05;0.75;;;0.73;;
11127;SDS011;5618;51.028;5.234;2022-07-05T11:22:26;1.90;;;1.00;;
11127;SDS011;5618;51.028;5.234;2022-07-05T11:24:52;1.08;;;0.80;;
11127;SDS011;5618;51.028;5.234;2022-07-05T11:27:19;1.60;;;0.80;;
11127;SDS011;5618;51.028;5.234;2022-07-05T11:32:15;0.90;;;0.90;;
11127;SDS011;5618;51.028;5.234;2022-07-05T11:34:52;1.65;;;0.80;;
11127;SDS011;5618;51.028;5.234;2022-07-05T11:37:19;0.77;;;0.77;;
11127;SDS011;5618;51.028;5.234;2022-07-05T11:42:45;0.80;;;0.80;;
11127;SDS011;5618;51.028;5.234;2022-07-05T11:45:12;2.97;;;1.00;;
11127;SDS011;5618;51.028;5.234;2022-07-05T11:47:38;1.08;;;1.08;;
11127;SDS011;5618;51.028;5.234;2022-07-05T11:50:05;2.58;;;1.00;;
11127;SDS011;5618;51.028;5.234;2022-07-05T11:52:32;1.27;;;0.75;;
11127;SDS011;5618;51.028;5.234;2022-07-05T11:54:59;1.45;;;1.05;;
11127;SDS011;5618;51.028;5.234;2022-07-05T11:57:26;1.13;;;1.05;;
11127;SDS011;5618;51.028;5.234;2022-07-05T11:59:51;2.45;;;1.00;;
11127;SDS011;5618;51.028;5.234;2022-07-05T12:02:18;1.58;;;1.05;;
11127;SDS011;5618;51.028;5.234;2022-07-05T12:04:50;3.53;;;1.20;;
11127;SDS011;5618;51.028;5.234;2022-07-05T12:07:30;1.13;;;0.90;;
11127;SDS011;5618;51.028;5.234;2022-07-05T12:09:58;1.30;;;0.90;;
11127;SDS011;5618;51.028;5.234;2022-07-05T12:13:02;4.35;;;1.05;;
11127;SDS011;5618;51.028;5.234;2022-07-05T12:15:32;1.58;;;0.75;;
11127;SDS011;5618;51.028;5.234;2022-07-05T12:17:59;1.83;;;1.15;;
11127;SDS011;5618;51.028;5.234;2022-07-05T12:20:28;1.20;;;0.90;;
11127;SDS011;5618;51.028;5.234;2022-07-05T12:22:56;3.08;;;0.80;;
11127;SDS011;5618;51.028;5.234;2022-07-05T12:25:23;0.82;;;0.82;;
11127;SDS011;5618;51.028;5.234;2022-07-05T12:27:51;1.42;;;1.00;;
11127;SDS011;5618;51.028;5.234;2022-07-05T12:30:18;1.88;;;1.13;;
11127;SDS011;5618;51.028;5.234;2022-07-05T12:32:54;2.40;;;1.25;;
11127;SDS011;5618;51.028;5.234;2022-07-05T12:35:27;1.35;;;1.05;;
11127;SDS011;5618;51.028;5.234;2022-07-05T12:37:54;1.00;;;0.85;;
11127;SDS011;5618;51.028;5.234;2022-07-05T12:40:21;1.52;;;0.80;;
11127;SDS011;5618;51.028;5.234;2022-07-05T12:42:59;2.33;;;0.82;;
11127;SDS011;5618;51.028;5.234;2022-07-05T12:45:36;2.25;;;1.13;;
11127;SDS011;5618;51.028;5.234;2022-07-05T12:48:03;1.33;;;0.90;;
11127;SDS011;5618;51.028;5.234;2022-07-05T12:50:51;1.30;;;0.93;;
11127;SDS011;5618;51.028;5.234;2022-07-05T12:53:20;1.55;;;1.42;;
11127;SDS011;5618;51.028;5.234;2022-07-05T12:56:05;1.00;;;1.00;;
11127;SDS011;5618;51.028;5.234;2022-07-05T12:58:54;3.95;;;1.65;;
11127;SDS011;5618;51.028;5.234;2022-07-05T13:01:33;4.97;;;1.40;;
11127;SDS011;5618;51.028;5.234;2022-07-05T13:04:05;1.25;;;1.15;;
11127;SDS011;5618;51.028;5.234;2022-07-05T13:12:09;1.63;;;1.00;;
11127;SDS011;5618;51.028;5.234;2022-07-05T13:14:45;1.48;;;1.38;;
11127;SDS011;5618;51.028;5.234;2022-07-05T13:17:16;3.35;;;1.60;;
11127;SDS011;5618;51.028;5.234;2022-07-05T13:19:47;4.38;;;1.60;;
11127;SDS011;5618;51.028;5.234;2022-07-05T13:22:14;2.47;;;1.33;;
11127;SDS011;5618;51.028;5.234;2022-07-05T13:24:40;1.90;;;1.33;;
11127;SDS011;5618;51.028;5.234;2022-07-05T13:27:07;3.17;;;1.73;;
11127;SDS011;5618;51.028;5.234;2022-07-05T13:29:34;1.85;;;1.20;;
11127;SDS011;5618;51.028;5.234;2022-07-05T13:32:00;2.72;;;1.60;;
11127;SDS011;5618;51.028;5.234;2022-07-05T13:34:26;1.75;;;1.48;;
11127;SDS011;5618;51.028;5.234;2022-07-05T13:36:53;1.50;;;1.35;;
11127;SDS011;5618;51.028;5.234;2022-07-05T13:39:20;1.80;;;1.48;;
11127;SDS011;5618;51.028;5.234;2022-07-05T13:41:46;1.30;;;1.08;;
11127;SDS011;5618;51.028;5.234;2022-07-05T13:44:13;1.92;;;1.50;;
11127;SDS011;5618;51.028;5.234;2022-07-05T13:46:38;3.08;;;1.73;;
11127;SDS011;5618;51.028;5.234;2022-07-05T13:49:04;2.13;;;1.90;;
11127;SDS011;5618;51.028;5.234;2022-07-05T13:51:30;2.17;;;1.63;;
11127;SDS011;5618;51.028;5.234;2022-07-05T13:53:55;1.75;;;1.65;;
11127;SDS011;5618;51.028;5.234;2022-07-05T13:56:21;2.20;;;2.00;;
11127;SDS011;5618;51.028;5.234;2022-07-05T13:58:47;2.00;;;1.90;;
11127;SDS011;5618;51.028;5.234;2022-07-05T14:01:14;4.15;;;1.48;;
11127;SDS011;5618;51.028;5.234;2022-07-05T14:03:39;9.65;;;1.77;;
11127;SDS011;5618;51.028;5.234;2022-07-05T14:06:05;2.75;;;1.40;;
11127;SDS011;5618;51.028;5.234;2022-07-05T14:08:31;0.98;;;0.98;;
11127;SDS011;5618;51.028;5.234;2022-07-05T14:10:57;1.27;;;1.17;;
11127;SDS011;5618;51.028;5.234;2022-07-05T14:13:24;0.65;;;0.65;;
11127;SDS011;5618;51.028;5.234;2022-07-05T14:15:51;1.35;;;1.10;;
11127;SDS011;5618;51.028;5.234;2022-07-05T14:18:17;0.80;;;0.80;;
11127;SDS011;5618;51.028;5.234;2022-07-05T14:20:45;3.00;;;1.13;;
11127;SDS011;5618;51.028;5.234;2022-07-05T14:23:12;0.82;;;0.82;;
11127;SDS011;5618;51.028;5.234;2022-07-05T14:25:41;2.17;;;1.02;;
11127;SDS011;5618;51.028;5.234;2022-07-05T14:28:08;0.93;;;0.82;;
11127;SDS011;5618;51.028;5.234;2022-07-05T14:30:38;1.67;;;0.85;;
11127;SDS011;5618;51.028;5.234;2022-07-05T14:33:05;1.38;;;0.75;;
11127;SDS011;5618;51.028;5.234;2022-07-05T14:35:31;1.63;;;0.90;;
11127;SDS011;5618;51.028;5.234;2022-07-05T14:37:58;1.63;;;0.80;;
11127;SDS011;5618;51.028;5.234;2022-07-05T14:40:24;1.75;;;1.20;;
11127;SDS011;5618;51.028;5.234;2022-07-05T14:42:51;2.63;;;0.90;;
11127;SDS011;5618;51.028;5.234;2022-07-05T14:45:20;1.23;;;0.80;;
11127;SDS011;5618;51.028;5.234;2022-07-05T14:47:47;0.90;;;0.82;;
11127;SDS011;5618;51.028;5.234;2022-07-05T14:50:13;1.95;;;1.00;;
11127;SDS011;5618;51.028;5.234;2022-07-05T14:52:39;1.50;;;0.85;;
11127;SDS011;5618;51.028;5.234;2022-07-05T14:55:06;1.33;;;0.85;;
11127;SDS011;5618;51.028;5.234;2022-07-05T14:57:32;1.13;;;0.70;;
11127;SDS011;5618;51.028;5.234;2022-07-05T14:59:58;1.35;;;0.82;;
11127;SDS011;5618;51.028;5.234;2022-07-05T15:02:24;0.98;;;0.75;;
11127;SDS011;5618;51.028;5.234;2022-07-05T15:04:49;0.50;;;0.50;;
11127;SDS011;5618;51.028;5.234;2022-07-05T15:07:15;1.25;;;0.75;;
11127;SDS011;5618;51.028;5.234;2022-07-05T15:09:41;0.73;;;0.73;;
11127;SDS011;5618;51.028;5.234;2022-07-05T15:12:07;2.28;;;0.90;;
11127;SDS011;5618;51.028;5.234;2022-07-05T15:14:33;1.02;;;0.80;;
11127;SDS011;5618;51.028;5.234;2022-07-05T15:16:58;2.78;;;0.80;;
11127;SDS011;5618;51.028;5.234;2022-07-05T15:19:24;1.95;;;0.98;;
11127;SDS011;5618;51.028;5.234;2022-07-05T15:21:50;0.77;;;0.70;;
11127;SDS011;5618;51.028;5.234;2022-07-05T15:24:15;0.70;;;0.70;;
11127;SDS011;5618;51.028;5.234;2022-07-05T15:26:46;1.08;;;0.57;;
11127;SDS011;5618;51.028;5.234;2022-07-05T15:29:12;4.00;;;0.77;;
11127;SDS011;5618;51.028;5.234;2022-07-05T15:31:37;1.30;;;0.40;;
11127;SDS011;5618;51.028;5.234;2022-07-05T15:34:04;0.88;;;0.73;;
11127;SDS011;5618;51.028;5.234;2022-07-05T15:36:30;1.45;;;0.65;;
11127;SDS011;5618;51.028;5.234;2022-07-05T15:38:57;1.02;;;0.70;;
11127;SDS011;5618;51.028;5.234;2022-07-05T15:41:26;0.98;;;0.70;;
11127;SDS011;5618;51.028;5.234;2022-07-05T15:43:52;1.70;;;0.88;;